GWL weather

Gwalior Airport
Gwalior, Madhya Pradesh, India

Public forecast

Using degrees Celsius for public forecast. Weather courtesy of forecast.io.

METAR (pilot weather report)

Retrieved 2019/09/15 06:30 UTC (28 seconds ago):

VIGR 150630Z 36006KT 6000 -RA SCT015 SCT020 BKN090 30/27 Q1006 TEMPO 2000 RA

TAF (pilot weather forecast)

Retrieved 2019/09/15 06:30 UTC (28 seconds ago):

TAF VIGR 150330Z 1506/1509 05007KT 6000 FEW018 SCT025 BKN090 BECMG 1507/1509 05007KT 6000 SCT020 FEW025TCU/CB BKN090 TEMPO 1509/1512 05015KT 1500 TSRA SCT015 SCT025 FEW030CB BKN080